createdAt,value
2023-02-18T00:00:57.833Z,9.28
2023-02-18T00:03:25.224Z,9.20
2023-02-18T00:05:52.087Z,9.09
2023-02-18T00:08:18.788Z,9.09
2023-02-18T00:10:45.365Z,9.21
2023-02-18T00:13:11.904Z,9.09
2023-02-18T00:15:38.743Z,9.10
2023-02-18T00:18:05.474Z,9.06
2023-02-18T00:20:33.588Z,9.02
2023-02-18T00:23:00.133Z,9.08
2023-02-18T00:25:26.684Z,8.98
2023-02-18T00:27:53.279Z,9.17
2023-02-18T00:30:19.884Z,8.88
2023-02-18T00:32:46.458Z,8.79
2023-02-18T00:35:13.059Z,8.94
2023-02-18T00:37:43.660Z,8.84
2023-02-18T00:40:10.406Z,8.87
2023-02-18T00:42:37.067Z,8.73
2023-02-18T00:45:03.654Z,8.87
2023-02-18T00:47:31.204Z,8.75
2023-02-18T00:49:57.962Z,8.73
2023-02-18T00:52:24.634Z,8.72
2023-02-18T00:54:51.248Z,8.95
2023-02-18T00:57:17.792Z,8.93
2023-02-18T00:59:44.406Z,8.82
2023-02-18T01:02:10.976Z,8.93
2023-02-18T01:04:37.538Z,8.91
2023-02-18T01:07:04.107Z,9.05
2023-02-18T01:09:30.641Z,8.99
2023-02-18T01:11:57.512Z,8.97
2023-02-18T01:14:24.089Z,8.95
2023-02-18T01:16:50.662Z,9.00
2023-02-18T01:19:17.207Z,8.87
2023-02-18T01:21:43.779Z,8.89
2023-02-18T01:24:10.357Z,8.97
2023-02-18T01:26:36.874Z,8.94
2023-02-18T01:29:03.412Z,8.88
2023-02-18T01:31:30.075Z,9.03
2023-02-18T01:33:58.729Z,8.95
2023-02-18T01:36:28.018Z,9.07
2023-02-18T01:38:56.145Z,9.01
2023-02-18T01:41:22.881Z,9.05
2023-02-18T01:43:49.423Z,8.99
2023-02-18T01:46:19.626Z,9.07
2023-02-18T01:48:51.166Z,8.85
2023-02-18T01:51:19.845Z,8.86
2023-02-18T01:53:49.500Z,8.88
2023-02-18T01:56:21.179Z,8.87
2023-02-18T01:58:47.921Z,8.75
2023-02-18T02:01:14.647Z,8.79
2023-02-18T02:03:41.462Z,9.00
2023-02-18T02:06:13.081Z,8.72
2023-02-18T02:08:40.599Z,9.00
2023-02-18T02:11:18.061Z,9.36
2023-02-18T02:14:02.445Z,8.98
2023-02-18T02:16:40.669Z,8.88
2023-02-18T02:19:07.176Z,8.93
2023-02-18T02:21:45.604Z,9.21
2023-02-18T02:24:13.021Z,8.92
2023-02-18T02:26:42.357Z,9.18
2023-02-18T02:29:18.171Z,9.19
2023-02-18T02:31:59.448Z,8.98
2023-02-18T02:34:43.756Z,8.77
2023-02-18T02:37:18.695Z,8.55
2023-02-18T02:39:51.350Z,8.83
2023-02-18T02:42:30.155Z,8.95
2023-02-18T02:45:15.726Z,9.15
2023-02-18T02:47:46.426Z,8.87
2023-02-18T02:50:18.214Z,8.55
2023-02-18T02:52:46.472Z,8.30
2023-02-18T02:55:13.293Z,8.41
2023-02-18T02:57:43.819Z,8.55
2023-02-18T03:00:14.923Z,8.42
2023-02-18T03:02:47.364Z,8.25
2023-02-18T03:05:19.964Z,8.11
2023-02-18T03:07:46.604Z,8.00
2023-02-18T03:10:13.161Z,8.26
2023-02-18T03:12:47.376Z,8.07
2023-02-18T03:15:24.679Z,8.02
2023-02-18T03:18:06.111Z,7.99
2023-02-18T03:20:34.708Z,8.23
2023-02-18T03:23:01.650Z,7.92
2023-02-18T03:25:28.402Z,7.94
2023-02-18T03:28:05.672Z,7.91
2023-02-18T03:30:36.445Z,8.01
2023-02-18T03:33:03.888Z,8.02
2023-02-18T03:35:30.443Z,8.00
2023-02-18T03:38:20.286Z,8.04
2023-02-18T03:40:46.972Z,7.89
2023-02-18T03:43:13.512Z,7.91
2023-02-18T03:45:40.266Z,7.95
2023-02-18T03:48:06.910Z,7.91
2023-02-18T03:50:33.465Z,8.01
2023-02-18T03:53:00.086Z,7.99
2023-02-18T03:55:27.044Z,8.09
2023-02-18T03:57:53.597Z,7.93
2023-02-18T04:00:20.396Z,8.00
2023-02-18T04:02:46.950Z,8.08
2023-02-18T04:05:13.522Z,8.17
2023-02-18T04:07:40.074Z,8.10
2023-02-18T04:10:06.940Z,7.94
2023-02-18T04:12:33.647Z,8.11
2023-02-18T04:15:00.306Z,8.15
2023-02-18T04:17:26.857Z,8.01
2023-02-18T04:19:53.453Z,7.96
2023-02-18T04:22:20.086Z,8.16
2023-02-18T04:24:46.618Z,8.19
2023-02-18T04:27:13.150Z,8.09
2023-02-18T04:29:39.755Z,7.99
2023-02-18T04:32:06.361Z,8.13
2023-02-18T04:34:32.978Z,8.10
2023-02-18T04:36:59.570Z,7.95
2023-02-18T04:39:26.151Z,7.89
2023-02-18T04:41:52.833Z,8.12
2023-02-18T04:44:19.436Z,8.18
2023-02-18T04:46:46.014Z,8.05
2023-02-18T04:49:12.812Z,7.94
2023-02-18T04:51:39.357Z,7.87
2023-02-18T04:54:05.945Z,7.93
2023-02-18T04:56:32.556Z,7.90
2023-02-18T04:58:59.119Z,7.80
2023-02-18T05:01:25.706Z,7.82
2023-02-18T05:03:52.508Z,7.80
2023-02-18T05:06:19.202Z,8.00
2023-02-18T05:08:45.882Z,8.29
2023-02-18T05:11:12.570Z,8.27
2023-02-18T05:13:39.298Z,8.24
2023-02-18T05:16:06.170Z,8.51
2023-02-18T05:18:33.142Z,8.65
2023-02-18T05:21:00.359Z,8.51
2023-02-18T05:23:27.343Z,8.51
2023-02-18T05:25:54.838Z,8.45
2023-02-18T05:28:21.462Z,8.52
2023-02-18T05:30:48.214Z,8.59
2023-02-18T05:33:14.926Z,8.60
2023-02-18T05:35:41.536Z,8.62
2023-02-18T05:38:08.182Z,8.50
2023-02-18T05:40:34.842Z,8.62
2023-02-18T05:43:01.507Z,8.84
2023-02-18T05:45:28.152Z,8.57
2023-02-18T05:47:54.802Z,8.65
2023-02-18T05:50:21.517Z,8.68
2023-02-18T05:52:48.200Z,8.78
2023-02-18T05:55:14.859Z,8.81
2023-02-18T05:57:41.680Z,8.82
2023-02-18T06:00:11.444Z,8.81
2023-02-18T06:02:38.192Z,8.69
2023-02-18T06:05:05.473Z,8.62
2023-02-18T06:07:32.168Z,8.64
2023-02-18T06:09:58.785Z,8.74
2023-02-18T06:12:25.502Z,8.75
2023-02-18T06:14:52.206Z,8.79
2023-02-18T06:17:19.067Z,8.82
2023-02-18T06:19:45.984Z,8.80
2023-02-18T06:22:12.661Z,8.76
2023-02-18T06:24:39.344Z,8.72
2023-02-18T06:27:06.154Z,8.73
2023-02-18T06:29:32.835Z,8.82
2023-02-18T06:31:59.666Z,8.75
2023-02-18T06:34:27.026Z,8.72
2023-02-18T06:36:53.716Z,8.81
2023-02-18T06:39:20.351Z,8.89
2023-02-18T06:41:47.024Z,8.92
2023-02-18T06:44:17.002Z,8.81
2023-02-18T06:46:44.560Z,8.93
2023-02-18T06:49:11.604Z,8.83
2023-02-18T06:51:38.301Z,8.90
2023-02-18T06:54:06.014Z,8.96
2023-02-18T06:56:33.046Z,8.88
2023-02-18T06:58:59.720Z,9.07
2023-02-18T07:01:26.398Z,9.05
2023-02-18T07:03:53.088Z,8.98
2023-02-18T07:06:19.726Z,8.88
2023-02-18T07:08:46.732Z,9.01
2023-02-18T07:11:13.409Z,9.08
2023-02-18T07:13:40.059Z,9.09
2023-02-18T07:16:07.417Z,9.08
2023-02-18T07:18:34.290Z,9.21
2023-02-18T07:21:01.116Z,9.28
2023-02-18T07:23:27.799Z,9.28
2023-02-18T07:26:10.355Z,9.31
2023-02-18T07:28:37.111Z,9.21
2023-02-18T07:31:03.925Z,9.36
2023-02-18T07:33:30.843Z,9.32
2023-02-18T07:35:58.447Z,9.44
2023-02-18T07:38:25.577Z,9.39
2023-02-18T07:40:52.213Z,9.30
2023-02-18T07:43:18.871Z,9.42
2023-02-18T07:45:45.553Z,9.44
2023-02-18T07:48:12.365Z,9.59
2023-02-18T07:50:40.424Z,9.65
2023-02-18T07:53:07.183Z,9.62
2023-02-18T07:55:49.223Z,9.64
2023-02-18T07:58:35.324Z,9.65
2023-02-18T08:01:09.610Z,9.73
2023-02-18T08:03:36.269Z,9.79
2023-02-18T08:06:03.892Z,9.82
2023-02-18T08:08:31.095Z,9.87
2023-02-18T08:11:02.724Z,9.79
2023-02-18T08:13:34.042Z,9.82
2023-02-18T08:16:00.908Z,9.84
2023-02-18T08:18:27.517Z,9.84
2023-02-18T08:20:54.220Z,9.78
2023-02-18T08:23:21.369Z,9.75
2023-02-18T08:25:50.163Z,9.85
2023-02-18T08:28:23.689Z,9.83
2023-02-18T08:30:51.437Z,9.81
2023-02-18T08:33:18.671Z,9.90
2023-02-18T08:35:45.453Z,9.98
2023-02-18T08:38:12.138Z,9.90
2023-02-18T08:40:38.772Z,9.88
2023-02-18T08:43:05.376Z,9.96
2023-02-18T08:45:31.970Z,9.94
2023-02-18T08:48:17.646Z,9.87
2023-02-18T08:50:45.014Z,9.96
2023-02-18T08:53:11.649Z,9.97
2023-02-18T08:55:40.231Z,10.04
2023-02-18T08:58:06.975Z,9.91
2023-02-18T09:00:33.672Z,9.91
2023-02-18T09:03:00.270Z,9.88
2023-02-18T09:05:26.959Z,9.89
2023-02-18T09:07:53.613Z,9.87
2023-02-18T09:10:20.336Z,9.85
2023-02-18T09:12:47.066Z,9.88
2023-02-18T09:15:13.975Z,9.89
2023-02-18T09:17:40.598Z,9.82
2023-02-18T09:20:07.790Z,9.76
2023-02-18T09:22:34.457Z,9.72
2023-02-18T09:25:01.108Z,9.83
2023-02-18T09:27:27.710Z,9.84
2023-02-18T09:29:54.345Z,9.94
2023-02-18T09:32:33.715Z,10.03
2023-02-18T09:35:00.813Z,10.09
2023-02-18T09:37:27.441Z,10.13
2023-02-18T09:39:54.084Z,10.17
2023-02-18T09:42:21.128Z,10.21
2023-02-18T09:44:55.715Z,10.27
2023-02-18T09:47:37.201Z,10.38
2023-02-18T09:50:14.274Z,10.31
2023-02-18T09:52:41.267Z,10.35
2023-02-18T09:55:18.426Z,10.38
2023-02-18T09:57:49.576Z,10.37
2023-02-18T10:00:25.407Z,10.50
2023-02-18T10:03:17.678Z,10.49
2023-02-18T10:05:51.917Z,10.53
2023-02-18T10:08:40.020Z,10.49
2023-02-18T10:11:37.087Z,10.50
2023-02-18T10:14:04.372Z,10.41
2023-02-18T10:16:31.152Z,10.36
2023-02-18T10:18:59.475Z,10.32
2023-02-18T10:21:31.420Z,10.32
2023-02-18T10:24:04.137Z,10.27
2023-02-18T10:26:31.757Z,10.28
2023-02-18T10:28:58.396Z,10.26
2023-02-18T10:31:37.331Z,10.32
2023-02-18T10:34:06.959Z,10.30
2023-02-18T10:36:42.218Z,10.32
2023-02-18T10:39:32.962Z,10.28
2023-02-18T10:42:28.331Z,10.32
2023-02-18T10:45:07.153Z,10.38
2023-02-18T10:47:33.686Z,10.30
2023-02-18T10:50:01.250Z,10.28
2023-02-18T10:52:29.422Z,10.23
2023-02-18T10:55:00.120Z,10.13
2023-02-18T10:57:26.609Z,10.13
2023-02-18T10:59:56.477Z,10.07
2023-02-18T11:02:24.075Z,10.04
2023-02-18T11:04:50.634Z,10.04
2023-02-18T11:07:19.730Z,9.95
2023-02-18T11:09:47.906Z,10.00
2023-02-18T11:12:15.599Z,9.99
2023-02-18T11:14:43.407Z,9.98
2023-02-18T11:17:10.879Z,9.92
2023-02-18T11:19:38.232Z,9.95
2023-02-18T11:22:12.698Z,9.87
2023-02-18T11:24:39.380Z,9.84
2023-02-18T11:27:09.534Z,9.89
2023-02-18T11:29:36.069Z,9.89
2023-02-18T11:32:02.711Z,9.89
2023-02-18T11:34:32.771Z,9.86
2023-02-18T11:37:19.277Z,9.82
2023-02-18T11:39:46.258Z,9.80
2023-02-18T11:42:13.510Z,9.78
2023-02-18T11:44:41.237Z,9.83
2023-02-18T11:47:13.961Z,9.83
2023-02-18T11:49:41.408Z,9.78
2023-02-18T11:52:15.979Z,9.71
2023-02-18T11:54:42.513Z,9.69
2023-02-18T11:57:12.395Z,9.63
2023-02-18T11:59:39.446Z,9.64
2023-02-18T12:02:12.007Z,9.69
2023-02-18T12:04:42.251Z,9.73
2023-02-18T12:07:17.830Z,9.71
2023-02-18T12:09:44.268Z,9.71
2023-02-18T12:12:14.927Z,9.68
2023-02-18T12:14:41.383Z,9.69
2023-02-18T12:17:29.572Z,9.69
2023-02-18T12:20:00.746Z,9.74
2023-02-18T12:22:39.366Z,9.76
2023-02-18T12:25:20.569Z,9.78
2023-02-18T12:27:53.973Z,9.77
2023-02-18T12:30:25.770Z,9.76
2023-02-18T12:32:55.205Z,9.78
2023-02-18T12:35:32.418Z,9.80
2023-02-18T12:38:02.285Z,9.81
2023-02-18T12:40:47.595Z,9.87
2023-02-18T12:43:17.084Z,9.92
2023-02-18T12:46:01.877Z,9.91
2023-02-18T12:48:38.536Z,9.95
2023-02-18T12:51:10.594Z,9.92
2023-02-18T12:53:40.322Z,9.87
2023-02-18T12:56:10.120Z,9.82
2023-02-18T12:58:40.400Z,9.78
2023-02-18T13:01:25.409Z,9.79
2023-02-18T13:04:04.016Z,9.79
2023-02-18T13:06:30.421Z,9.79
2023-02-18T13:09:03.494Z,9.82
2023-02-18T13:11:53.305Z,9.85
2023-02-18T13:14:23.911Z,9.84
2023-02-18T13:16:51.455Z,9.87
2023-02-18T13:19:24.174Z,9.82
2023-02-18T13:21:51.224Z,9.79
2023-02-18T13:24:22.843Z,9.78
2023-02-18T13:26:49.398Z,9.72
2023-02-18T13:29:32.632Z,9.70
2023-02-18T13:32:03.284Z,9.69
2023-02-18T13:34:34.749Z,9.71
2023-02-18T13:37:06.804Z,9.71
2023-02-18T13:39:33.350Z,9.70
2023-02-18T13:42:10.627Z,9.73
2023-02-18T13:44:55.699Z,9.73
2023-02-18T13:47:37.523Z,9.75
2023-02-18T13:50:16.303Z,9.71
2023-02-18T13:52:44.359Z,9.70
2023-02-18T13:55:24.063Z,9.56
2023-02-18T13:57:52.337Z,9.44
2023-02-18T14:00:22.562Z,9.30
2023-02-18T14:02:55.798Z,9.22
2023-02-18T14:05:23.063Z,9.21
2023-02-18T14:07:53.206Z,9.13
2023-02-18T14:10:19.793Z,9.21
2023-02-18T14:12:58.816Z,9.22
2023-02-18T14:15:25.390Z,9.21
2023-02-18T14:18:10.762Z,9.27
2023-02-18T14:20:37.209Z,9.27
2023-02-18T14:23:32.742Z,9.30
2023-02-18T14:26:09.464Z,9.32
2023-02-18T14:28:38.960Z,9.31
2023-02-18T14:31:12.085Z,9.29
2023-02-18T14:33:50.225Z,9.30
2023-02-18T14:36:25.550Z,9.31
2023-02-18T14:38:55.483Z,9.39
2023-02-18T14:41:31.011Z,9.39
2023-02-18T14:44:00.688Z,9.40
2023-02-18T14:46:45.988Z,9.45
2023-02-18T14:49:31.447Z,9.48
2023-02-18T14:51:58.053Z,9.50
2023-02-18T14:54:25.494Z,9.52
2023-02-18T14:57:03.548Z,9.48
2023-02-18T14:59:31.602Z,9.52
2023-02-18T15:01:58.270Z,9.53
2023-02-18T15:04:25.178Z,9.44
2023-02-18T15:06:58.507Z,9.55
2023-02-18T15:09:25.096Z,9.57
2023-02-18T15:11:52.568Z,9.55
2023-02-18T15:14:20.274Z,9.56
2023-02-18T15:16:46.853Z,9.57
2023-02-18T15:19:14.793Z,9.60
2023-02-18T15:21:43.197Z,9.61
2023-02-18T15:24:09.760Z,9.66
2023-02-18T15:26:37.460Z,9.60
2023-02-18T15:29:05.099Z,9.61
2023-02-18T15:31:35.759Z,9.60
2023-02-18T15:34:02.547Z,9.51
2023-02-18T15:36:29.086Z,9.55
2023-02-18T15:38:56.637Z,9.55
2023-02-18T15:41:23.131Z,9.45
2023-02-18T15:43:53.338Z,9.40
2023-02-18T15:46:20.400Z,9.37
2023-02-18T15:48:47.525Z,9.34
2023-02-18T15:51:17.650Z,9.33
2023-02-18T15:53:45.398Z,9.31
2023-02-18T15:56:15.161Z,9.32
2023-02-18T15:58:41.775Z,9.33
2023-02-18T16:01:23.955Z,9.27
2023-02-18T16:03:50.530Z,9.33
2023-02-18T16:06:26.256Z,9.34
2023-02-18T16:09:19.001Z,9.30
2023-02-18T16:11:46.577Z,9.25
2023-02-18T16:14:27.270Z,9.24
2023-02-18T16:17:07.436Z,9.27
2023-02-18T16:19:34.202Z,9.21
2023-02-18T16:22:04.418Z,9.21
2023-02-18T16:24:33.110Z,9.20
2023-02-18T16:27:00.151Z,9.18
2023-02-18T16:29:36.805Z,9.09
2023-02-18T16:32:03.563Z,9.08
2023-02-18T16:34:30.138Z,9.10
2023-02-18T16:37:15.525Z,9.18
2023-02-18T16:39:42.034Z,9.12
2023-02-18T16:42:11.727Z,9.02
2023-02-18T16:44:38.536Z,9.06
2023-02-18T16:47:05.133Z,9.02
2023-02-18T16:49:31.844Z,9.07
2023-02-18T16:51:58.848Z,9.04
2023-02-18T16:54:25.421Z,9.04
2023-02-18T16:56:52.004Z,8.95
2023-02-18T16:59:18.741Z,9.05
2023-02-18T17:01:45.294Z,9.01
2023-02-18T17:04:15.029Z,9.01
2023-02-18T17:06:41.760Z,9.03
2023-02-18T17:09:16.660Z,8.98
2023-02-18T17:11:44.002Z,8.98
2023-02-18T17:14:18.043Z,8.93
2023-02-18T17:16:45.259Z,8.87
2023-02-18T17:19:11.902Z,8.89
2023-02-18T17:21:38.460Z,8.81
2023-02-18T17:24:05.076Z,8.88
2023-02-18T17:26:31.619Z,8.82
2023-02-18T17:28:58.655Z,8.85
2023-02-18T17:31:26.552Z,8.77
2023-02-18T17:34:04.548Z,8.76
2023-02-18T17:36:31.100Z,8.74
2023-02-18T17:38:57.852Z,8.69
2023-02-18T17:41:24.474Z,8.87
2023-02-18T17:43:51.057Z,8.83
2023-02-18T17:46:18.066Z,8.75
2023-02-18T17:48:44.869Z,8.70
2023-02-18T17:51:24.491Z,8.68
2023-02-18T17:53:51.064Z,8.59
2023-02-18T17:56:17.547Z,8.59
2023-02-18T17:58:44.209Z,8.52
2023-02-18T18:01:10.977Z,8.55
2023-02-18T18:03:37.551Z,8.65
2023-02-18T18:06:04.891Z,8.45
2023-02-18T18:08:31.486Z,8.44
2023-02-18T18:10:59.012Z,8.41
2023-02-18T18:13:29.200Z,8.31
2023-02-18T18:15:57.697Z,8.40
2023-02-18T18:18:24.536Z,8.23
2023-02-18T18:20:51.928Z,8.20
2023-02-18T18:23:18.987Z,8.24
2023-02-18T18:25:46.893Z,8.23
2023-02-18T18:28:13.706Z,8.19
2023-02-18T18:30:41.517Z,8.23
2023-02-18T18:33:21.392Z,8.45
2023-02-18T18:35:49.960Z,8.34
2023-02-18T18:38:19.412Z,8.30
2023-02-18T18:40:46.370Z,8.24
2023-02-18T18:43:19.629Z,8.22
2023-02-18T18:45:46.334Z,8.20
2023-02-18T18:48:13.025Z,7.99
2023-02-18T18:50:42.207Z,8.04
2023-02-18T18:53:18.403Z,8.12
2023-02-18T18:55:45.044Z,8.03
2023-02-18T18:58:11.540Z,8.06
2023-02-18T19:00:39.149Z,8.25
2023-02-18T19:03:05.663Z,8.21
2023-02-18T19:05:32.992Z,8.23
2023-02-18T19:07:59.602Z,8.11
2023-02-18T19:10:26.663Z,8.19
2023-02-18T19:12:53.301Z,8.23
2023-02-18T19:15:20.526Z,8.21
2023-02-18T19:17:47.953Z,8.30
2023-02-18T19:20:15.144Z,8.30
2023-02-18T19:22:41.684Z,8.21
2023-02-18T19:25:08.218Z,8.03
2023-02-18T19:27:40.984Z,7.96
2023-02-18T19:30:09.165Z,7.96
2023-02-18T19:32:35.701Z,8.04
2023-02-18T19:35:02.235Z,8.09
2023-02-18T19:37:31.167Z,8.17
2023-02-18T19:39:57.677Z,8.31
2023-02-18T19:42:24.188Z,8.35
2023-02-18T19:44:50.740Z,8.11
2023-02-18T19:47:17.276Z,8.08
2023-02-18T19:49:44.669Z,8.15
2023-02-18T19:52:11.240Z,8.10
2023-02-18T19:54:37.839Z,8.08
2023-02-18T19:57:05.476Z,8.23
2023-02-18T19:59:32.087Z,8.24
2023-02-18T20:01:58.689Z,8.20
2023-02-18T20:04:25.236Z,8.22
2023-02-18T20:06:51.820Z,8.19
2023-02-18T20:09:18.350Z,8.19
2023-02-18T20:11:44.927Z,8.24
2023-02-18T20:14:11.466Z,8.21
2023-02-18T20:16:37.964Z,8.22
2023-02-18T20:19:04.476Z,8.21
2023-02-18T20:21:31.021Z,8.28
2023-02-18T20:23:57.616Z,8.16
2023-02-18T20:26:24.207Z,8.23
2023-02-18T20:28:50.985Z,8.27
2023-02-18T20:31:17.633Z,8.31
2023-02-18T20:33:44.232Z,8.32
2023-02-18T20:36:11.457Z,8.35
2023-02-18T20:38:38.004Z,8.37
2023-02-18T20:41:05.359Z,8.33
2023-02-18T20:43:32.939Z,8.27
2023-02-18T20:46:03.356Z,8.28
2023-02-18T20:48:30.171Z,8.30
2023-02-18T20:50:56.802Z,8.20
2023-02-18T20:53:23.275Z,8.22
2023-02-18T20:55:49.832Z,8.28
2023-02-18T20:58:16.353Z,8.24
2023-02-18T21:00:42.875Z,8.36
2023-02-18T21:03:09.442Z,8.19
2023-02-18T21:05:36.070Z,8.18
2023-02-18T21:08:02.570Z,8.18
2023-02-18T21:10:29.129Z,8.21
2023-02-18T21:12:55.659Z,8.07
2023-02-18T21:15:22.274Z,8.12
2023-02-18T21:17:48.768Z,8.08
2023-02-18T21:20:15.309Z,8.08
2023-02-18T21:22:41.770Z,8.14
2023-02-18T21:25:08.386Z,8.13
2023-02-18T21:27:34.906Z,8.07
2023-02-18T21:30:01.513Z,8.04
2023-02-18T21:32:28.120Z,8.06
2023-02-18T21:34:54.800Z,8.12
2023-02-18T21:37:21.373Z,8.12
2023-02-18T21:39:47.859Z,8.11
2023-02-18T21:42:14.428Z,8.09
2023-02-18T21:44:42.564Z,8.10
2023-02-18T21:47:09.485Z,8.17
2023-02-18T21:49:36.002Z,8.21
2023-02-18T21:52:08.634Z,8.17
2023-02-18T21:54:42.062Z,8.18
2023-02-18T21:57:12.593Z,8.16
2023-02-18T21:59:39.122Z,8.19
2023-02-18T22:02:05.790Z,8.25
2023-02-18T22:04:32.797Z,8.41
2023-02-18T22:06:59.468Z,8.36
2023-02-18T22:09:25.977Z,8.38
2023-02-18T22:11:52.505Z,8.33
2023-02-18T22:14:18.987Z,8.19
2023-02-18T22:16:48.168Z,8.19
2023-02-18T22:19:14.885Z,8.22
2023-02-18T22:21:42.248Z,8.23
2023-02-18T22:24:08.844Z,8.22
2023-02-18T22:26:35.390Z,8.25
2023-02-18T22:29:01.899Z,8.25
2023-02-18T22:31:28.800Z,8.22
2023-02-18T22:33:55.691Z,8.29
2023-02-18T22:36:22.615Z,8.32
2023-02-18T22:38:49.112Z,8.35
2023-02-18T22:41:16.466Z,8.31
2023-02-18T22:43:42.969Z,8.23
2023-02-18T22:46:10.599Z,8.30
2023-02-18T22:48:37.187Z,8.25
2023-02-18T22:51:16.643Z,8.34
2023-02-18T22:53:43.350Z,8.24
2023-02-18T22:56:12.241Z,8.27
2023-02-18T22:58:38.789Z,8.28
2023-02-18T23:01:06.916Z,8.35
2023-02-18T23:03:33.490Z,8.41
2023-02-18T23:06:03.540Z,8.45
2023-02-18T23:08:30.254Z,8.38
2023-02-18T23:11:03.096Z,8.22
2023-02-18T23:13:29.626Z,8.09
2023-02-18T23:15:59.762Z,8.05
2023-02-18T23:18:26.417Z,8.05
2023-02-18T23:21:12.126Z,8.01
2023-02-18T23:23:38.723Z,8.01
2023-02-18T23:26:05.533Z,8.00
2023-02-18T23:28:47.547Z,7.98
2023-02-18T23:31:17.714Z,8.13
2023-02-18T23:33:44.969Z,8.03
2023-02-18T23:36:14.962Z,8.08
2023-02-18T23:38:41.467Z,8.02
2023-02-18T23:41:08.099Z,8.01
2023-02-18T23:43:34.833Z,7.96
2023-02-18T23:46:01.382Z,7.88
2023-02-18T23:48:27.939Z,7.97
2023-02-18T23:50:58.110Z,7.92
2023-02-18T23:53:25.448Z,8.04
2023-02-18T23:56:00.585Z,8.04
2023-02-18T23:58:27.146Z,7.92
